createdAt,value
2023-02-02T00:00:24.259Z,1.16
2023-02-02T00:00:53.978Z,1.26
2023-02-02T00:01:24.740Z,1.16
2023-02-02T00:01:55.573Z,1.16
2023-02-02T00:02:27.318Z,1.16
2023-02-02T00:02:58.006Z,1.16
2023-02-02T00:03:28.906Z,1.26
2023-02-02T00:03:59.595Z,1.16
2023-02-02T00:04:30.578Z,1.16
2023-02-02T00:05:01.795Z,1.16
2023-02-02T00:05:32.855Z,1.16
2023-02-02T00:06:03.604Z,1.16
2023-02-02T00:06:34.988Z,1.16
2023-02-02T00:07:05.914Z,1.16
2023-02-02T00:07:36.697Z,1.16
2023-02-02T00:08:07.908Z,.99
2023-02-02T00:08:38.950Z,1.26
2023-02-02T00:09:10.295Z,1.26
2023-02-02T00:09:42.315Z,1.26
2023-02-02T00:10:12.790Z,1.26
2023-02-02T00:10:43.927Z,1.26
2023-02-02T00:11:13.611Z,1.26
2023-02-02T00:11:44.778Z,1.16
2023-02-02T00:12:15.873Z,1.16
2023-02-02T00:12:46.960Z,1.33
2023-02-02T00:13:17.953Z,1.33
2023-02-02T00:13:49.056Z,1.33
2023-02-02T00:14:20.018Z,1.33
2023-02-02T00:14:50.642Z,1.33
2023-02-02T00:15:23.151Z,1.33
2023-02-02T00:15:52.970Z,1.33
2023-02-02T00:16:23.955Z,1.33
2023-02-02T00:16:54.648Z,1.16
2023-02-02T00:17:25.973Z,1.16
2023-02-02T00:17:56.683Z,1.33
2023-02-02T00:18:27.682Z,1.33
2023-02-02T00:18:58.796Z,1.33
2023-02-02T00:19:29.815Z,1.33
2023-02-02T00:20:01.121Z,1.33
2023-02-02T00:20:31.889Z,1.33
2023-02-02T00:21:02.667Z,1.16
2023-02-02T00:21:33.916Z,1.33
2023-02-02T00:22:04.818Z,1.33
2023-02-02T00:22:35.640Z,1.33
2023-02-02T00:23:07.072Z,1.23
2023-02-02T00:23:37.922Z,1.23
2023-02-02T00:24:08.846Z,1.23
2023-02-02T00:24:39.908Z,1.06
2023-02-02T00:25:11.149Z,1.06
2023-02-02T00:25:41.618Z,1.33
2023-02-02T00:26:12.790Z,1.16
2023-02-02T00:26:44.155Z,1.16
2023-02-02T00:27:14.854Z,1.16
2023-02-02T00:27:45.890Z,1.16
2023-02-02T00:28:17.115Z,1.16
2023-02-02T00:28:47.713Z,1.33
2023-02-02T00:29:18.960Z,1.33
2023-02-02T00:29:49.669Z,1.16
2023-02-02T00:30:22.014Z,1.33
2023-02-02T00:30:52.141Z,1.33
2023-02-02T00:31:22.882Z,1.33
2023-02-02T00:31:54.094Z,1.33
2023-02-02T00:32:25.047Z,1.23
2023-02-02T00:32:55.683Z,1.23
2023-02-02T00:33:27.029Z,1.06
2023-02-02T00:33:58.023Z,1.06
2023-02-02T00:34:29.041Z,1.16
2023-02-02T00:34:59.899Z,1.16
2023-02-02T00:35:49.408Z,1.16
2023-02-02T00:36:01.710Z,1.16
2023-02-02T00:36:33.023Z,1.33
2023-02-02T00:37:03.829Z,1.16
2023-02-02T00:37:35.094Z,1.16
2023-02-02T00:38:06.041Z,1.16
2023-02-02T00:38:37.009Z,1.33
2023-02-02T00:39:07.780Z,1.33
2023-02-02T00:39:38.650Z,1.33
2023-02-02T00:40:10.748Z,1.33
2023-02-02T00:40:41.165Z,1.33
2023-02-02T00:41:14.131Z,1.33
2023-02-02T00:41:42.745Z,1.33
2023-02-02T00:42:14.962Z,1.33
2023-02-02T00:42:45.153Z,1.23
2023-02-02T00:43:16.402Z,1.23
2023-02-02T00:43:46.727Z,1.23
2023-02-02T00:44:17.890Z,1.23
2023-02-02T00:44:49.011Z,1.23
2023-02-02T00:45:23.204Z,1.23
2023-02-02T00:45:51.221Z,1.23
2023-02-02T00:46:22.085Z,1.23
2023-02-02T00:49:09.613Z,1.39
2023-02-02T00:49:28.100Z,1.39
2023-02-02T00:49:59.330Z,1.39
2023-02-02T00:50:30.261Z,1.39
2023-02-02T00:51:00.725Z,1.39
2023-02-02T00:51:32.000Z,1.39
2023-02-02T00:52:03.204Z,1.39
2023-02-02T00:52:34.235Z,1.39
2023-02-02T00:53:05.090Z,1.39
2023-02-02T00:53:36.105Z,1.39
2023-02-02T00:54:06.805Z,1.39
2023-02-02T00:54:38.242Z,1.23
2023-02-02T00:55:09.619Z,1.23
2023-02-02T00:55:40.058Z,1.23
2023-02-02T00:56:11.270Z,1.23
2023-02-02T00:56:41.839Z,1.23
2023-02-02T00:57:13.332Z,1.23
2023-02-02T00:57:44.136Z,1.39
2023-02-02T00:58:15.275Z,1.39
2023-02-02T00:58:46.079Z,1.39
2023-02-02T00:59:17.077Z,1.39
2023-02-02T00:59:48.242Z,1.39
2023-02-02T01:15:18.915Z,1.45
2023-02-02T01:15:49.194Z,1.45
2023-02-02T01:16:19.810Z,1.29
2023-02-02T01:16:50.764Z,1.29
2023-02-02T01:17:21.863Z,1.29
2023-02-02T01:17:53.027Z,1.29
2023-02-02T01:18:24.064Z,1.45
2023-02-02T01:18:57.507Z,1.29
2023-02-02T01:19:26.010Z,1.39
2023-02-02T01:19:56.939Z,1.55
2023-02-02T01:20:28.088Z,1.45
2023-02-02T01:20:58.927Z,1.45
2023-02-02T01:21:30.059Z,1.45
2023-02-02T01:22:02.759Z,1.45
2023-02-02T01:22:31.991Z,1.45
2023-02-02T01:23:03.045Z,1.45
2023-02-02T01:23:33.788Z,1.45
2023-02-02T01:24:04.841Z,1.45
2023-02-02T01:24:35.819Z,1.61
2023-02-02T01:25:07.574Z,1.61
2023-02-02T01:25:38.032Z,1.61
2023-02-02T01:26:09.176Z,1.61
2023-02-02T01:26:40.236Z,1.51
2023-02-02T01:27:11.115Z,1.51
2023-02-02T01:27:43.278Z,1.67
2023-02-02T01:28:13.071Z,1.51
2023-02-02T01:28:44.118Z,1.51
2023-02-02T01:29:14.991Z,1.51
2023-02-02T01:29:45.893Z,1.51
2023-02-02T01:30:18.119Z,1.51
2023-02-02T01:30:48.142Z,1.51
2023-02-02T01:31:18.937Z,1.51
2023-02-02T01:31:50.147Z,1.51
2023-02-02T01:32:21.308Z,1.51
2023-02-02T01:32:51.875Z,1.51
2023-02-02T01:33:22.978Z,1.51
2023-02-02T01:33:54.062Z,1.35
2023-02-02T01:34:25.009Z,1.35
2023-02-02T01:34:56.112Z,1.51
2023-02-02T01:35:27.479Z,1.51
2023-02-02T01:35:58.032Z,1.51
2023-02-02T01:36:28.973Z,1.51
2023-02-02T01:37:00.035Z,1.51
2023-02-02T01:37:30.942Z,1.35
2023-02-02T01:38:02.081Z,1.51
2023-02-02T01:38:33.093Z,1.51
2023-02-02T01:39:04.059Z,1.51
2023-02-02T01:39:35.057Z,1.51
2023-02-02T01:40:06.150Z,1.51
2023-02-02T01:40:36.852Z,1.51
2023-02-02T01:41:08.110Z,1.35
2023-02-02T01:41:38.857Z,1.51
2023-02-02T01:42:10.112Z,1.51
2023-02-02T01:42:40.874Z,1.35
2023-02-02T01:43:11.912Z,1.35
2023-02-02T01:43:43.106Z,1.35
2023-02-02T01:44:16.017Z,1.35
2023-02-02T01:44:44.920Z,1.45
2023-02-02T01:45:19.321Z,1.45
2023-02-02T01:45:47.442Z,1.45
2023-02-02T01:46:18.490Z,1.45
2023-02-02T01:46:49.250Z,1.45
2023-02-02T01:47:20.220Z,1.45
2023-02-02T01:47:50.943Z,1.45
2023-02-02T01:48:22.086Z,1.61
2023-02-02T01:48:53.283Z,1.45
2023-02-02T01:49:23.863Z,1.45
2023-02-02T01:49:55.309Z,1.45
2023-02-02T01:50:26.328Z,1.45
2023-02-02T01:50:56.972Z,1.45
2023-02-02T01:51:28.777Z,1.45
2023-02-02T01:51:58.931Z,1.45
2023-02-02T01:52:30.033Z,1.45
2023-02-02T01:53:00.974Z,1.45
2023-02-02T01:53:32.109Z,1.45
2023-02-02T01:54:03.139Z,1.45
2023-02-02T01:54:33.951Z,1.35
2023-02-02T01:55:05.279Z,1.35
2023-02-02T01:55:36.182Z,1.51
2023-02-02T01:56:06.993Z,1.51
2023-02-02T01:56:38.287Z,1.35
2023-02-02T01:57:09.338Z,1.35
2023-02-02T01:57:40.300Z,1.35
2023-02-02T01:58:11.152Z,1.45
2023-02-02T01:58:42.201Z,1.45
2023-02-02T01:59:12.984Z,1.61
2023-02-02T01:59:44.359Z,1.45
2023-02-02T02:00:16.368Z,1.45
2023-02-02T02:00:47.147Z,1.35
2023-02-02T02:01:17.451Z,1.61
2023-02-02T02:01:48.351Z,1.51
2023-02-02T02:02:19.113Z,1.51
2023-02-02T02:02:50.128Z,1.51
2023-02-02T02:03:21.126Z,1.51
2023-02-02T02:03:52.296Z,1.51
2023-02-02T02:04:23.397Z,1.51
2023-02-02T02:04:53.995Z,1.35
2023-02-02T02:05:25.551Z,1.51
2023-02-02T02:05:56.093Z,1.51
2023-02-02T02:06:27.070Z,1.51
2023-02-02T02:06:58.293Z,1.35
2023-02-02T02:07:29.789Z,1.51
2023-02-02T02:08:00.114Z,1.51
2023-02-02T02:08:31.801Z,1.51
2023-02-02T02:09:02.017Z,1.35
2023-02-02T02:09:33.009Z,1.35
2023-02-02T02:10:04.691Z,1.51
2023-02-02T02:10:35.159Z,1.51
2023-02-02T02:11:06.326Z,1.51
2023-02-02T02:11:37.350Z,1.51
2023-02-02T02:12:08.259Z,1.51
2023-02-02T02:12:39.030Z,1.35
2023-02-02T02:13:10.269Z,1.51
2023-02-02T02:13:41.897Z,1.51
2023-02-02T02:14:12.579Z,1.51
2023-02-02T02:14:43.071Z,1.51
2023-02-02T02:15:15.458Z,1.51
2023-02-02T02:15:46.206Z,1.51
2023-02-02T02:16:16.219Z,1.51
2023-02-02T02:16:48.401Z,1.51
2023-02-02T02:17:18.341Z,1.51
2023-02-02T02:17:49.815Z,1.51
2023-02-02T02:18:20.009Z,1.51
2023-02-02T02:18:51.338Z,1.51
2023-02-02T02:19:22.925Z,1.51
2023-02-02T02:19:53.389Z,1.51
2023-02-02T02:20:24.606Z,1.51
2023-02-02T02:20:55.070Z,1.51
2023-02-02T02:21:26.072Z,1.51
2023-02-02T02:21:57.312Z,1.51
2023-02-02T02:22:28.246Z,1.51
2023-02-02T02:22:59.076Z,1.41
2023-02-02T02:23:30.070Z,1.41
2023-02-02T02:24:01.045Z,1.41
2023-02-02T02:24:32.135Z,1.51
2023-02-02T02:25:03.350Z,1.51
2023-02-02T02:25:34.538Z,1.51
2023-02-02T02:26:05.295Z,1.51
2023-02-02T02:26:36.325Z,1.51
2023-02-02T02:27:07.698Z,1.51
2023-02-02T02:27:38.149Z,1.51
2023-02-02T02:28:09.525Z,1.51
2023-02-02T02:28:40.950Z,1.51
2023-02-02T02:29:11.070Z,1.51
2023-02-02T02:29:42.164Z,1.51
2023-02-02T02:30:14.044Z,1.41
2023-02-02T02:30:44.512Z,1.57
2023-02-02T02:31:15.327Z,1.41
2023-02-02T02:31:46.601Z,1.41
2023-02-02T02:32:17.313Z,1.41
2023-02-02T02:32:48.470Z,1.57
2023-02-02T02:33:19.216Z,1.57
2023-02-02T02:33:50.149Z,1.57
2023-02-02T02:34:21.518Z,1.57
2023-02-02T02:34:52.372Z,1.57
2023-02-02T02:35:24.685Z,1.57
2023-02-02T02:35:54.650Z,1.47
2023-02-02T02:36:25.618Z,1.47
2023-02-02T02:36:56.816Z,1.47
2023-02-02T02:37:27.481Z,1.47
2023-02-02T02:37:58.172Z,1.47
2023-02-02T02:38:29.335Z,1.47
2023-02-02T02:39:00.101Z,1.47
2023-02-02T02:39:31.109Z,1.57
2023-02-02T02:40:02.629Z,1.57
2023-02-02T02:40:33.151Z,1.41
2023-02-02T02:41:04.377Z,1.57
2023-02-02T02:41:35.126Z,1.57
2023-02-02T02:42:06.437Z,1.57
2023-02-02T02:42:37.490Z,1.57
2023-02-02T02:43:08.946Z,1.57
2023-02-02T02:43:39.151Z,1.57
2023-02-02T02:44:10.153Z,1.57
2023-02-02T02:44:41.146Z,1.57
2023-02-02T02:45:13.314Z,1.57
2023-02-02T02:45:43.525Z,1.57
2023-02-02T02:46:14.550Z,1.57
2023-02-02T02:46:45.452Z,1.57
2023-02-02T02:47:17.320Z,1.57
2023-02-02T02:47:47.607Z,1.57
2023-02-02T02:48:20.388Z,1.57
2023-02-02T02:48:49.189Z,1.57
2023-02-02T02:49:20.833Z,1.57
2023-02-02T02:49:51.232Z,1.57
2023-02-02T02:50:23.007Z,1.57
2023-02-02T02:50:53.567Z,1.57
2023-02-02T02:51:24.087Z,1.57
2023-02-02T02:51:55.689Z,1.57
2023-02-02T02:52:26.816Z,1.57
2023-02-02T02:52:57.267Z,1.57
2023-02-02T02:53:28.606Z,1.57
2023-02-02T02:53:59.120Z,1.57
2023-02-02T02:54:30.171Z,1.47
2023-02-02T02:55:01.517Z,1.47
2023-02-02T02:55:32.279Z,1.47
2023-02-02T02:56:03.372Z,1.47
2023-02-02T02:56:34.445Z,1.47
2023-02-02T02:57:05.587Z,1.47
2023-02-02T02:57:36.607Z,1.47
2023-02-02T02:58:07.190Z,1.47
2023-02-02T02:58:38.553Z,1.47
2023-02-02T02:59:09.431Z,1.57
2023-02-02T02:59:40.525Z,1.57
2023-02-02T03:00:12.188Z,1.57
2023-02-02T03:00:42.669Z,1.47
2023-02-02T03:01:13.273Z,1.47
2023-02-02T03:01:44.535Z,1.47
2023-02-02T03:02:15.326Z,1.47
2023-02-02T03:02:46.777Z,1.47
2023-02-02T03:03:17.199Z,1.57
2023-02-02T03:03:48.152Z,1.57
2023-02-02T03:04:19.592Z,1.57
2023-02-02T03:04:50.160Z,1.57
2023-02-02T03:05:23.359Z,1.47
2023-02-02T03:05:52.589Z,1.47
2023-02-02T03:06:23.195Z,1.47
2023-02-02T03:06:54.211Z,1.47
2023-02-02T03:07:25.248Z,1.47
2023-02-02T03:07:56.576Z,1.47
2023-02-02T03:08:27.657Z,1.47
2023-02-02T03:08:58.430Z,1.47
2023-02-02T03:09:29.208Z,1.47
2023-02-02T03:10:00.810Z,1.47
2023-02-02T03:10:31.542Z,1.57
2023-02-02T03:11:02.429Z,1.57
2023-02-02T03:11:33.590Z,1.57
2023-02-02T03:12:04.599Z,1.57
2023-02-02T03:12:35.172Z,1.57
2023-02-02T03:13:06.218Z,1.57
2023-02-02T03:13:37.486Z,1.57
2023-02-02T03:14:08.522Z,1.57
2023-02-02T03:14:39.509Z,1.57
2023-02-02T03:15:11.246Z,1.57
2023-02-02T03:15:41.485Z,1.57
2023-02-02T03:16:12.597Z,1.57
2023-02-02T03:16:43.633Z,1.57
2023-02-02T03:17:14.710Z,1.57
2023-02-02T03:17:45.625Z,1.57
2023-02-02T03:18:16.262Z,1.57
2023-02-02T03:18:49.945Z,1.57
2023-02-02T03:19:18.270Z,1.41
2023-02-02T03:19:50.253Z,1.57
2023-02-02T03:20:20.688Z,1.57
2023-02-02T03:20:51.528Z,1.41
2023-02-02T03:21:22.562Z,1.41
2023-02-02T03:21:53.780Z,1.51
2023-02-02T03:22:24.670Z,1.51
2023-02-02T03:22:55.265Z,1.51
2023-02-02T03:23:26.390Z,1.51
2023-02-02T03:23:57.469Z,1.51
2023-02-02T03:24:28.221Z,1.51
2023-02-02T03:24:59.232Z,1.51
2023-02-02T03:25:30.970Z,1.51
2023-02-02T03:26:01.554Z,1.51
2023-02-02T03:26:32.524Z,1.51
2023-02-02T03:27:03.499Z,1.51
2023-02-02T03:27:34.270Z,1.51
2023-02-02T03:28:05.251Z,1.51
2023-02-02T03:28:36.594Z,1.35
2023-02-02T03:29:07.429Z,1.45
2023-02-02T03:29:38.272Z,1.45
2023-02-02T03:30:10.471Z,1.61
2023-02-02T03:30:40.577Z,1.61
2023-02-02T03:31:12.314Z,1.61
2023-02-02T03:31:42.929Z,1.45
2023-02-02T03:32:13.406Z,1.45
2023-02-02T03:32:44.577Z,1.61
2023-02-02T03:33:15.926Z,1.61
2023-02-02T03:33:46.406Z,1.45
2023-02-02T03:34:17.605Z,1.45
2023-02-02T03:34:48.531Z,1.45
2023-02-02T03:35:21.152Z,1.45
2023-02-02T03:35:50.539Z,1.45
2023-02-02T03:36:21.350Z,1.45
2023-02-02T03:36:52.848Z,1.45
2023-02-02T03:37:23.832Z,1.55
2023-02-02T03:37:54.677Z,1.55
2023-02-02T03:38:26.099Z,1.55
2023-02-02T03:38:56.296Z,1.55
2023-02-02T03:39:27.952Z,1.55
2023-02-02T03:39:59.094Z,1.55
2023-02-02T03:40:29.636Z,1.55
2023-02-02T03:41:00.273Z,1.55
2023-02-02T03:41:32.421Z,1.55
2023-02-02T03:42:02.967Z,1.55
2023-02-02T03:42:34.123Z,1.55
2023-02-02T03:43:04.686Z,1.55
2023-02-02T03:43:35.909Z,1.55
2023-02-02T03:44:07.087Z,1.55
2023-02-02T03:44:37.869Z,1.55
2023-02-02T03:45:09.178Z,1.55
2023-02-02T03:45:39.582Z,1.55
2023-02-02T03:46:10.410Z,1.55
2023-02-02T03:46:42.028Z,1.55
2023-02-02T03:47:12.937Z,1.55
2023-02-02T03:47:43.326Z,1.55
2023-02-02T03:48:14.369Z,1.55
2023-02-02T03:48:45.629Z,1.55
2023-02-02T03:49:16.647Z,1.55
2023-02-02T03:49:47.799Z,1.55
2023-02-02T03:50:19.930Z,1.55
2023-02-02T03:50:49.367Z,1.55
2023-02-02T03:51:21.998Z,1.55
2023-02-02T03:51:51.393Z,1.39
2023-02-02T03:52:23.254Z,1.49
2023-02-02T03:52:53.570Z,1.65
2023-02-02T03:53:24.736Z,1.49
2023-02-02T03:53:55.424Z,1.49
2023-02-02T03:54:26.692Z,1.49
2023-02-02T03:54:57.759Z,1.49
2023-02-02T03:55:28.767Z,1.49
2023-02-02T03:55:59.683Z,1.49
2023-02-02T03:56:30.697Z,1.65
2023-02-02T03:57:01.724Z,1.65
2023-02-02T03:57:32.767Z,1.49
2023-02-02T03:58:03.371Z,1.49
2023-02-02T03:58:34.432Z,1.49
2023-02-02T03:59:06.079Z,1.49
2023-02-02T03:59:36.751Z,1.49
2023-02-02T04:00:08.645Z,1.49
2023-02-02T04:00:38.446Z,1.49
2023-02-02T04:01:09.758Z,1.49
2023-02-02T04:01:40.594Z,1.65
2023-02-02T04:02:11.615Z,1.49
2023-02-02T04:02:42.668Z,1.49
2023-02-02T04:03:13.393Z,1.65
2023-02-02T04:03:44.739Z,1.49
2023-02-02T04:04:15.765Z,1.49
2023-02-02T04:04:46.522Z,1.49
2023-02-02T04:05:17.993Z,1.49
2023-02-02T04:05:48.723Z,1.65
2023-02-02T04:06:19.789Z,1.49
2023-02-02T04:06:50.378Z,1.49
2023-02-02T04:07:21.466Z,1.49
2023-02-02T04:07:52.733Z,1.49
2023-02-02T04:08:23.709Z,1.49
2023-02-02T04:08:54.762Z,1.49
2023-02-02T04:09:25.660Z,1.65
2023-02-02T04:09:56.655Z,1.65
2023-02-02T04:10:28.231Z,1.49
2023-02-02T04:10:58.888Z,1.65
2023-02-02T04:11:29.688Z,1.65
2023-02-02T04:12:00.817Z,1.65
2023-02-02T04:12:31.418Z,1.65
2023-02-02T04:13:02.824Z,1.65
2023-02-02T04:13:33.418Z,1.65
2023-02-02T04:14:04.487Z,1.49
2023-02-02T04:14:35.824Z,1.49
2023-02-02T04:15:07.362Z,1.49
2023-02-02T04:15:37.903Z,1.49
2023-02-02T04:16:09.024Z,1.49
2023-02-02T04:16:40.094Z,1.49
2023-02-02T04:17:11.003Z,1.65
2023-02-02T04:17:41.755Z,1.65
2023-02-02T04:18:13.047Z,1.49
2023-02-02T04:18:43.436Z,1.49
2023-02-02T04:19:14.463Z,1.59
2023-02-02T04:19:45.429Z,1.59
2023-02-02T04:20:17.570Z,1.75
2023-02-02T04:20:48.079Z,1.75
2023-02-02T04:21:19.178Z,1.65
2023-02-02T04:21:50.566Z,1.65
2023-02-02T04:22:20.564Z,1.65
2023-02-02T04:22:52.080Z,1.65
2023-02-02T04:23:22.521Z,1.65
2023-02-02T04:23:55.007Z,1.49
2023-02-02T04:24:24.818Z,1.65
2023-02-02T04:24:55.946Z,1.65
2023-02-02T04:25:27.412Z,1.65
2023-02-02T04:25:57.861Z,1.65
2023-02-02T04:26:28.521Z,1.65
2023-02-02T04:26:59.888Z,1.65
2023-02-02T04:27:30.856Z,1.65
2023-02-02T04:28:01.494Z,1.65
2023-02-02T04:28:32.780Z,1.49
2023-02-02T04:29:03.854Z,1.65
2023-02-02T04:29:35.022Z,1.65
2023-02-02T04:30:06.947Z,1.59
2023-02-02T04:30:37.166Z,1.59
2023-02-02T04:31:07.921Z,1.59
2023-02-02T04:31:38.536Z,1.59
2023-02-02T04:32:09.953Z,1.59
2023-02-02T04:32:40.677Z,1.59
2023-02-02T04:33:11.651Z,1.59
2023-02-02T04:33:42.641Z,1.75
2023-02-02T04:34:13.723Z,1.59
2023-02-02T04:34:44.685Z,1.75
2023-02-02T04:35:16.203Z,1.75
2023-02-02T04:35:46.564Z,1.75
2023-02-02T04:36:17.644Z,1.65
2023-02-02T04:36:48.478Z,1.49
2023-02-02T04:37:19.727Z,1.49
2023-02-02T04:37:50.842Z,1.49
2023-02-02T04:38:22.075Z,1.59
2023-02-02T04:38:52.737Z,1.59
2023-02-02T04:39:23.516Z,1.59
2023-02-02T04:39:54.499Z,1.43
2023-02-02T04:40:26.109Z,1.53
2023-02-02T04:40:57.381Z,1.69
2023-02-02T04:41:27.701Z,1.69
2023-02-02T04:41:58.748Z,1.69
2023-02-02T04:42:29.457Z,1.69
2023-02-02T04:43:00.766Z,1.69
2023-02-02T04:43:31.790Z,1.69
2023-02-02T04:44:02.839Z,1.69
2023-02-02T04:44:33.964Z,1.69
2023-02-02T04:45:05.773Z,1.69
2023-02-02T04:45:36.048Z,1.69
2023-02-02T04:46:06.917Z,1.69
2023-02-02T04:46:37.895Z,1.69
2023-02-02T04:47:09.011Z,1.69
2023-02-02T04:47:39.409Z,1.69
2023-02-02T04:48:10.552Z,1.69
2023-02-02T04:48:41.839Z,1.69
2023-02-02T04:49:12.660Z,1.69
2023-02-02T04:49:43.961Z,1.69
2023-02-02T04:50:14.991Z,1.69
2023-02-02T04:50:46.263Z,1.69
2023-02-02T04:51:17.356Z,1.69
2023-02-02T04:51:47.778Z,1.69
2023-02-02T04:52:18.831Z,1.69
2023-02-02T04:52:50.024Z,1.69
2023-02-02T04:53:22.735Z,1.69
2023-02-02T04:53:52.533Z,1.69
2023-02-02T04:54:23.990Z,1.69
2023-02-02T04:54:54.216Z,1.69
2023-02-02T04:55:26.029Z,1.69
2023-02-02T04:55:55.772Z,1.69
2023-02-02T04:56:26.752Z,1.69
2023-02-02T04:56:58.262Z,1.69
2023-02-02T04:57:29.444Z,1.69
2023-02-02T04:58:00.177Z,1.53
2023-02-02T04:58:30.999Z,1.69
2023-02-02T04:59:02.119Z,1.69
2023-02-02T04:59:32.819Z,1.69
2023-02-02T05:00:05.555Z,1.69
2023-02-02T05:00:35.203Z,1.69
2023-02-02T05:01:06.174Z,1.69
2023-02-02T05:01:37.378Z,1.69
2023-02-02T05:02:07.591Z,1.69
2023-02-02T05:02:38.554Z,1.69
2023-02-02T05:03:10.315Z,1.69
2023-02-02T05:03:40.628Z,1.69
2023-02-02T05:04:12.288Z,1.69
2023-02-02T05:04:42.597Z,1.53
2023-02-02T05:05:14.863Z,1.69
2023-02-02T05:05:45.354Z,1.69
2023-02-02T05:06:16.128Z,1.69
2023-02-02T05:06:47.056Z,1.69
2023-02-02T05:07:18.368Z,1.69
2023-02-02T05:07:49.327Z,1.69
2023-02-02T05:08:19.596Z,1.69
2023-02-02T05:08:50.618Z,1.69
2023-02-02T05:09:22.596Z,1.69
2023-02-02T05:09:53.196Z,1.69
2023-02-02T05:10:24.876Z,1.63
2023-02-02T05:10:55.149Z,1.79
2023-02-02T05:11:25.549Z,1.63
2023-02-02T05:11:56.577Z,1.63
2023-02-02T05:12:28.045Z,1.63
2023-02-02T05:12:59.041Z,1.63
2023-02-02T05:13:29.605Z,1.63
2023-02-02T05:14:00.584Z,1.79
2023-02-02T05:14:31.840Z,1.63
2023-02-02T05:15:03.744Z,1.63
2023-02-02T05:15:34.024Z,1.63
2023-02-02T05:16:04.939Z,1.63
2023-02-02T05:16:36.017Z,1.63
2023-02-02T05:17:06.608Z,1.63
2023-02-02T05:17:37.643Z,1.79
2023-02-02T05:18:08.884Z,1.79
2023-02-02T05:18:39.971Z,1.79
2023-02-02T05:19:11.249Z,1.79
2023-02-02T05:19:41.855Z,1.79
2023-02-02T05:20:13.440Z,1.63
2023-02-02T05:20:43.680Z,1.79
2023-02-02T05:21:15.005Z,1.79
2023-02-02T05:21:45.589Z,1.79
2023-02-02T05:22:17.053Z,1.79
2023-02-02T05:22:48.304Z,1.79
2023-02-02T05:23:19.093Z,1.79
2023-02-02T05:23:49.876Z,1.63
2023-02-02T05:24:20.774Z,1.63
2023-02-02T05:24:57.113Z,1.63
2023-02-02T05:25:23.641Z,1.72
2023-02-02T05:25:55.224Z,1.72
2023-02-02T05:26:25.016Z,1.72
2023-02-02T05:27:05.302Z,1.88
2023-02-02T05:27:26.999Z,1.88
2023-02-02T05:27:57.689Z,1.79
2023-02-02T05:28:28.894Z,1.79
2023-02-02T05:28:59.907Z,1.63
2023-02-02T05:29:30.616Z,1.63
2023-02-02T05:30:02.922Z,1.63
2023-02-02T05:30:33.687Z,1.63
2023-02-02T05:31:04.361Z,1.63
2023-02-02T05:31:35.023Z,1.79
2023-02-02T05:32:05.710Z,1.79
2023-02-02T05:32:36.900Z,1.79
2023-02-02T05:33:07.850Z,1.79
2023-02-02T05:33:39.087Z,1.79
2023-02-02T05:34:09.870Z,1.79
2023-02-02T05:34:40.868Z,1.79
2023-02-02T05:35:12.510Z,1.79
2023-02-02T05:35:42.839Z,1.79
2023-02-02T05:36:14.138Z,1.79
2023-02-02T05:36:44.700Z,1.79
2023-02-02T05:37:15.931Z,1.63
2023-02-02T05:37:46.833Z,1.63
2023-02-02T05:38:17.901Z,1.79
2023-02-02T05:38:49.144Z,1.63
2023-02-02T05:39:19.760Z,1.63
2023-02-02T05:39:51.027Z,1.63
2023-02-02T05:40:22.560Z,1.63
2023-02-02T05:40:53.411Z,1.79
2023-02-02T05:41:23.776Z,1.79
2023-02-02T05:41:54.873Z,1.63
2023-02-02T05:42:26.119Z,1.63
2023-02-02T05:42:57.044Z,1.79
2023-02-02T05:43:27.950Z,1.63
2023-02-02T05:43:58.938Z,1.63
2023-02-02T05:44:29.685Z,1.63
2023-02-02T05:45:01.565Z,1.72
2023-02-02T05:45:32.180Z,1.72
2023-02-02T05:46:03.140Z,1.72
2023-02-02T05:46:33.681Z,1.72
2023-02-02T05:47:04.920Z,1.88
2023-02-02T05:47:36.023Z,1.88
2023-02-02T05:48:06.880Z,1.79
2023-02-02T05:48:37.915Z,1.63
2023-02-02T05:49:09.328Z,1.63
2023-02-02T05:49:40.077Z,1.63
2023-02-02T05:50:11.731Z,1.63
2023-02-02T05:50:41.858Z,1.72
2023-02-02T05:51:13.065Z,1.88
2023-02-02T05:51:44.617Z,1.88
2023-02-02T05:52:15.402Z,1.72
2023-02-02T05:52:46.672Z,1.72
2023-02-02T05:53:17.063Z,1.72
2023-02-02T05:53:48.171Z,1.72
2023-02-02T05:54:19.139Z,1.72
2023-02-02T05:54:49.748Z,1.88
2023-02-02T05:55:22.889Z,1.88
2023-02-02T05:55:52.339Z,1.88
2023-02-02T05:56:24.934Z,1.72
2023-02-02T05:56:53.988Z,1.72
2023-02-02T05:57:29.908Z,1.72
2023-02-02T05:57:55.943Z,1.72
2023-02-02T05:58:29.959Z,1.72
2023-02-02T05:58:57.764Z,1.72
2023-02-02T05:59:32.250Z,1.72
2023-02-02T06:00:01.503Z,1.72
2023-02-02T06:00:31.119Z,1.72
2023-02-02T06:01:01.793Z,1.72
2023-02-02T06:01:32.804Z,1.72
2023-02-02T06:02:04.644Z,1.72
2023-02-02T06:02:35.109Z,1.82
2023-02-02T06:03:06.006Z,1.72
2023-02-02T06:03:37.088Z,1.72
2023-02-02T06:04:07.809Z,1.72
2023-02-02T06:04:38.928Z,1.72
2023-02-02T06:05:11.000Z,1.72
2023-02-02T06:05:40.775Z,1.72
2023-02-02T06:06:12.040Z,1.72
2023-02-02T06:06:43.000Z,1.88
2023-02-02T06:07:14.778Z,1.72
2023-02-02T06:08:02.005Z,1.72
2023-02-02T06:08:15.919Z,1.72
2023-02-02T06:08:47.240Z,1.72
2023-02-02T06:09:18.348Z,1.88
2023-02-02T06:09:49.165Z,1.72
2023-02-02T06:10:20.909Z,1.72
2023-02-02T06:10:51.214Z,1.72
2023-02-02T06:11:22.078Z,1.72
2023-02-02T06:11:53.139Z,1.72
2023-02-02T06:12:23.820Z,1.72
2023-02-02T06:12:55.434Z,1.72
2023-02-02T06:13:26.157Z,1.72
2023-02-02T06:13:57.143Z,1.72
2023-02-02T06:14:28.175Z,1.72
2023-02-02T06:14:59.511Z,1.72
2023-02-02T06:15:31.693Z,1.72
2023-02-02T06:16:01.409Z,1.82
2023-02-02T06:16:32.553Z,1.82
2023-02-02T06:17:03.280Z,1.82
2023-02-02T06:17:34.208Z,1.82
2023-02-02T06:18:05.199Z,1.82
2023-02-02T06:18:36.506Z,1.82
2023-02-02T06:19:07.353Z,1.82
2023-02-02T06:19:38.250Z,1.82
2023-02-02T06:20:09.611Z,1.82
2023-02-02T06:20:40.264Z,1.82
2023-02-02T06:21:11.363Z,1.98
2023-02-02T06:21:42.081Z,1.82
2023-02-02T06:22:13.027Z,1.82
2023-02-02T06:22:44.128Z,1.72
2023-02-02T06:23:15.164Z,1.72
2023-02-02T06:23:46.174Z,1.72
2023-02-02T06:24:16.869Z,1.82
2023-02-02T06:24:48.010Z,1.82
2023-02-02T06:25:20.324Z,1.82
2023-02-02T06:25:50.170Z,1.82
2023-02-02T06:26:21.392Z,1.82
2023-02-02T06:26:51.884Z,1.82
2023-02-02T06:27:23.162Z,1.82
2023-02-02T06:27:56.176Z,1.82
2023-02-02T06:28:25.235Z,1.82
2023-02-02T06:29:01.445Z,1.82
2023-02-02T06:29:27.255Z,1.82
2023-02-02T06:30:08.122Z,1.82
2023-02-02T06:30:29.211Z,1.82
2023-02-02T06:31:00.325Z,1.82
2023-02-02T06:31:31.615Z,1.82
2023-02-02T06:32:02.879Z,1.82
2023-02-02T06:32:32.931Z,1.82
2023-02-02T06:33:04.073Z,1.65
2023-02-02T06:33:35.260Z,1.82
2023-02-02T06:34:06.260Z,1.82
2023-02-02T06:34:37.123Z,1.82
2023-02-02T06:35:08.249Z,1.82
2023-02-02T06:35:39.176Z,1.82
2023-02-02T06:36:10.178Z,1.82
2023-02-02T06:36:41.269Z,1.82
2023-02-02T06:37:11.979Z,1.82
2023-02-02T06:37:43.588Z,1.82
2023-02-02T06:38:13.930Z,1.82
2023-02-02T06:38:44.896Z,1.82
2023-02-02T06:39:16.083Z,1.82
2023-02-02T06:39:47.296Z,1.82
2023-02-02T06:40:18.589Z,1.82
2023-02-02T06:40:48.935Z,1.82
2023-02-02T06:41:20.400Z,1.82
2023-02-02T06:41:51.753Z,1.82
2023-02-02T06:42:22.219Z,1.82
2023-02-02T06:42:53.429Z,1.82
2023-02-02T06:43:24.314Z,1.82
2023-02-02T06:43:55.181Z,1.82
2023-02-02T06:44:26.143Z,1.82
2023-02-02T06:44:56.904Z,1.82
2023-02-02T06:45:29.107Z,1.82
2023-02-02T06:45:59.248Z,1.82
2023-02-02T06:46:30.379Z,1.98
2023-02-02T06:47:01.285Z,1.82
2023-02-02T06:47:31.938Z,1.82
2023-02-02T06:48:02.910Z,1.82
2023-02-02T06:48:34.825Z,1.82
2023-02-02T06:49:04.920Z,1.82
2023-02-02T06:49:36.373Z,1.82
2023-02-02T06:50:07.714Z,1.82
2023-02-02T06:50:38.169Z,1.82
2023-02-02T06:51:09.306Z,1.82
2023-02-02T06:51:40.327Z,1.82
2023-02-02T06:52:11.370Z,1.82
2023-02-02T06:52:42.161Z,1.82
2023-02-02T06:53:13.317Z,1.82
2023-02-02T06:53:43.941Z,1.82
2023-02-02T06:54:14.858Z,1.82
2023-02-02T06:54:46.458Z,1.82
2023-02-02T06:55:17.911Z,1.82
2023-02-02T06:55:48.059Z,1.82
2023-02-02T06:56:19.162Z,1.82
2023-02-02T06:56:50.230Z,1.82
2023-02-02T06:57:21.258Z,1.82
2023-02-02T06:57:52.225Z,1.82
2023-02-02T06:58:23.155Z,1.82
2023-02-02T06:58:54.373Z,1.82
2023-02-02T06:59:27.886Z,1.82
2023-02-02T06:59:56.395Z,1.82
2023-02-02T07:00:30.462Z,1.82
2023-02-02T07:00:58.256Z,1.82
2023-02-02T07:01:30.621Z,1.82
2023-02-02T07:02:00.431Z,1.98
2023-02-02T07:02:31.337Z,1.82
2023-02-02T07:03:02.452Z,1.82
2023-02-02T07:03:33.393Z,1.82
2023-02-02T07:04:04.342Z,1.82
2023-02-02T07:04:35.660Z,1.82
2023-02-02T07:05:07.407Z,1.82
2023-02-02T07:05:37.302Z,1.82
2023-02-02T07:06:08.611Z,1.82
2023-02-02T07:06:39.040Z,1.82
2023-02-02T07:07:10.452Z,1.82
2023-02-02T07:07:41.674Z,1.98
2023-02-02T07:08:12.707Z,1.98
2023-02-02T07:08:43.553Z,1.82
2023-02-02T07:09:14.743Z,1.82
2023-02-02T07:09:45.150Z,1.82